sensor_id;sensor_type;location;lat;lon;timestamp;P1;durP1;ratioP1;P2;durP2;ratioP2
70997;SDS011;58663;52.040;4.634;2022-10-16T00:01:15;3.65;;;1.50;;
70997;SDS011;58663;52.040;4.634;2022-10-16T00:03:42;3.45;;;1.30;;
70997;SDS011;58663;52.040;4.634;2022-10-16T00:06:08;6.35;;;2.35;;
70997;SDS011;58663;52.040;4.634;2022-10-16T00:08:34;6.50;;;1.60;;
70997;SDS011;58663;52.040;4.634;2022-10-16T00:11:04;4.85;;;1.38;;
70997;SDS011;58663;52.040;4.634;2022-10-16T00:13:32;3.53;;;1.60;;
70997;SDS011;58663;52.040;4.634;2022-10-16T00:15:59;2.60;;;1.40;;
70997;SDS011;58663;52.040;4.634;2022-10-16T00:18:25;3.22;;;1.35;;
70997;SDS011;58663;52.040;4.634;2022-10-16T00:20:51;5.40;;;1.40;;
70997;SDS011;58663;52.040;4.634;2022-10-16T00:23:16;2.78;;;1.30;;
70997;SDS011;58663;52.040;4.634;2022-10-16T00:25:42;2.38;;;1.15;;
70997;SDS011;58663;52.040;4.634;2022-10-16T00:28:07;1.80;;;1.42;;
70997;SDS011;58663;52.040;4.634;2022-10-16T00:30:32;2.63;;;1.23;;
70997;SDS011;58663;52.040;4.634;2022-10-16T00:32:58;1.40;;;1.10;;
70997;SDS011;58663;52.040;4.634;2022-10-16T00:35:23;2.03;;;0.90;;
70997;SDS011;58663;52.040;4.634;2022-10-16T00:37:48;4.43;;;1.20;;
70997;SDS011;58663;52.040;4.634;2022-10-16T00:40:14;3.53;;;1.20;;
70997;SDS011;58663;52.040;4.634;2022-10-16T00:42:39;4.80;;;1.02;;
70997;SDS011;58663;52.040;4.634;2022-10-16T00:45:05;1.90;;;0.95;;
70997;SDS011;58663;52.040;4.634;2022-10-16T00:47:34;1.88;;;0.90;;
70997;SDS011;58663;52.040;4.634;2022-10-16T00:50:06;2.78;;;0.85;;
70997;SDS011;58663;52.040;4.634;2022-10-16T00:52:36;1.40;;;0.90;;
70997;SDS011;58663;52.040;4.634;2022-10-16T00:55:05;1.58;;;1.00;;
70997;SDS011;58663;52.040;4.634;2022-10-16T00:57:31;1.98;;;0.80;;
70997;SDS011;58663;52.040;4.634;2022-10-16T00:59:57;4.13;;;1.25;;
70997;SDS011;58663;52.040;4.634;2022-10-16T01:02:23;3.70;;;1.20;;
70997;SDS011;58663;52.040;4.634;2022-10-16T01:04:49;2.20;;;1.25;;
70997;SDS011;58663;52.040;4.634;2022-10-16T01:12:45;2.22;;;1.30;;
70997;SDS011;58663;52.040;4.634;2022-10-16T01:15:30;3.95;;;1.33;;
70997;SDS011;58663;52.040;4.634;2022-10-16T01:18:18;1.63;;;1.35;;
70997;SDS011;58663;52.040;4.634;2022-10-16T01:20:59;5.85;;;1.55;;
70997;SDS011;58663;52.040;4.634;2022-10-16T01:24:01;2.67;;;1.25;;
70997;SDS011;58663;52.040;4.634;2022-10-16T01:34:45;1.88;;;1.45;;
70997;SDS011;58663;52.040;4.634;2022-10-16T01:37:20;3.40;;;1.50;;
70997;SDS011;58663;52.040;4.634;2022-10-16T01:39:50;2.83;;;1.42;;
70997;SDS011;58663;52.040;4.634;2022-10-16T01:42:23;3.63;;;1.60;;
70997;SDS011;58663;52.040;4.634;2022-10-16T01:44:51;2.72;;;1.25;;
70997;SDS011;58663;52.040;4.634;2022-10-16T01:47:17;2.90;;;1.52;;
70997;SDS011;58663;52.040;4.634;2022-10-16T01:49:44;1.65;;;1.20;;
70997;SDS011;58663;52.040;4.634;2022-10-16T01:52:11;1.98;;;1.50;;
70997;SDS011;58663;52.040;4.634;2022-10-16T01:54:40;1.65;;;1.40;;
70997;SDS011;58663;52.040;4.634;2022-10-16T01:57:06;2.17;;;1.50;;
70997;SDS011;58663;52.040;4.634;2022-10-16T01:59:35;3.72;;;1.42;;
70997;SDS011;58663;52.040;4.634;2022-10-16T02:02:04;2.45;;;1.67;;
70997;SDS011;58663;52.040;4.634;2022-10-16T02:04:53;2.78;;;1.55;;
70997;SDS011;58663;52.040;4.634;2022-10-16T02:07:22;6.40;;;1.65;;
70997;SDS011;58663;52.040;4.634;2022-10-16T02:09:48;2.15;;;1.52;;
70997;SDS011;58663;52.040;4.634;2022-10-16T02:14:47;1.40;;;1.30;;
70997;SDS011;58663;52.040;4.634;2022-10-16T02:17:14;3.47;;;1.80;;
70997;SDS011;58663;52.040;4.634;2022-10-16T02:19:40;6.90;;;2.05;;
70997;SDS011;58663;52.040;4.634;2022-10-16T02:22:07;2.20;;;1.98;;
70997;SDS011;58663;52.040;4.634;2022-10-16T02:24:34;5.95;;;2.20;;
70997;SDS011;58663;52.040;4.634;2022-10-16T02:27:24;4.38;;;1.73;;
70997;SDS011;58663;52.040;4.634;2022-10-16T02:29:53;2.35;;;1.85;;
70997;SDS011;58663;52.040;4.634;2022-10-16T02:32:24;3.72;;;2.17;;
70997;SDS011;58663;52.040;4.634;2022-10-16T02:34:50;3.53;;;1.95;;
70997;SDS011;58663;52.040;4.634;2022-10-16T02:37:16;2.15;;;1.50;;
70997;SDS011;58663;52.040;4.634;2022-10-16T02:39:41;2.22;;;1.77;;
70997;SDS011;58663;52.040;4.634;2022-10-16T02:42:11;2.80;;;1.80;;
70997;SDS011;58663;52.040;4.634;2022-10-16T02:44:37;2.67;;;1.92;;
70997;SDS011;58663;52.040;4.634;2022-10-16T02:47:03;4.40;;;2.10;;
70997;SDS011;58663;52.040;4.634;2022-10-16T02:49:28;2.92;;;2.10;;
70997;SDS011;58663;52.040;4.634;2022-10-16T02:51:53;2.92;;;2.17;;
70997;SDS011;58663;52.040;4.634;2022-10-16T02:54:19;4.07;;;2.22;;
70997;SDS011;58663;52.040;4.634;2022-10-16T02:56:44;4.03;;;1.90;;
70997;SDS011;58663;52.040;4.634;2022-10-16T02:59:09;4.10;;;2.20;;
70997;SDS011;58663;52.040;4.634;2022-10-16T03:01:35;3.67;;;2.15;;
70997;SDS011;58663;52.040;4.634;2022-10-16T03:04:00;2.67;;;1.80;;
70997;SDS011;58663;52.040;4.634;2022-10-16T03:06:25;2.47;;;1.65;;
70997;SDS011;58663;52.040;4.634;2022-10-16T03:08:51;3.35;;;1.65;;
70997;SDS011;58663;52.040;4.634;2022-10-16T03:11:16;5.78;;;1.80;;
70997;SDS011;58663;52.040;4.634;2022-10-16T03:13:41;4.88;;;2.05;;
70997;SDS011;58663;52.040;4.634;2022-10-16T03:16:07;2.72;;;1.75;;
70997;SDS011;58663;52.040;4.634;2022-10-16T03:18:32;4.82;;;1.77;;
70997;SDS011;58663;52.040;4.634;2022-10-16T03:20:57;5.13;;;1.85;;
70997;SDS011;58663;52.040;4.634;2022-10-16T03:23:23;2.97;;;1.60;;
70997;SDS011;58663;52.040;4.634;2022-10-16T03:25:48;3.38;;;1.63;;
70997;SDS011;58663;52.040;4.634;2022-10-16T03:28:14;5.28;;;1.60;;
70997;SDS011;58663;52.040;4.634;2022-10-16T03:30:39;3.65;;;1.85;;
70997;SDS011;58663;52.040;4.634;2022-10-16T03:33:04;4.72;;;2.50;;
70997;SDS011;58663;52.040;4.634;2022-10-16T03:35:30;4.30;;;1.70;;
70997;SDS011;58663;52.040;4.634;2022-10-16T03:37:55;2.50;;;1.50;;
70997;SDS011;58663;52.040;4.634;2022-10-16T03:40:21;3.67;;;1.63;;
70997;SDS011;58663;52.040;4.634;2022-10-16T03:42:46;6.30;;;1.90;;
70997;SDS011;58663;52.040;4.634;2022-10-16T03:45:12;3.35;;;1.48;;
70997;SDS011;58663;52.040;4.634;2022-10-16T03:47:37;5.95;;;1.85;;
70997;SDS011;58663;52.040;4.634;2022-10-16T03:50:03;2.40;;;1.70;;
70997;SDS011;58663;52.040;4.634;2022-10-16T03:52:29;3.33;;;1.65;;
70997;SDS011;58663;52.040;4.634;2022-10-16T03:54:54;3.88;;;1.60;;
70997;SDS011;58663;52.040;4.634;2022-10-16T03:57:20;6.53;;;1.50;;
70997;SDS011;58663;52.040;4.634;2022-10-16T03:59:45;2.72;;;1.27;;
70997;SDS011;58663;52.040;4.634;2022-10-16T04:02:11;3.70;;;1.23;;
70997;SDS011;58663;52.040;4.634;2022-10-16T04:04:36;4.80;;;1.70;;
70997;SDS011;58663;52.040;4.634;2022-10-16T04:07:01;5.18;;;1.45;;
70997;SDS011;58663;52.040;4.634;2022-10-16T04:09:27;3.65;;;1.30;;
70997;SDS011;58663;52.040;4.634;2022-10-16T04:11:52;3.78;;;1.48;;
70997;SDS011;58663;52.040;4.634;2022-10-16T04:14:17;3.10;;;1.42;;
70997;SDS011;58663;52.040;4.634;2022-10-16T04:16:43;5.97;;;1.42;;
70997;SDS011;58663;52.040;4.634;2022-10-16T04:19:09;1.73;;;1.38;;
70997;SDS011;58663;52.040;4.634;2022-10-16T04:21:35;5.60;;;1.70;;
70997;SDS011;58663;52.040;4.634;2022-10-16T04:24:01;4.25;;;1.92;;
70997;SDS011;58663;52.040;4.634;2022-10-16T04:26:26;3.20;;;1.40;;
70997;SDS011;58663;52.040;4.634;2022-10-16T04:28:51;3.92;;;1.58;;
70997;SDS011;58663;52.040;4.634;2022-10-16T04:31:17;3.15;;;1.50;;
70997;SDS011;58663;52.040;4.634;2022-10-16T04:33:42;4.05;;;1.88;;
70997;SDS011;58663;52.040;4.634;2022-10-16T04:36:08;5.43;;;1.85;;
70997;SDS011;58663;52.040;4.634;2022-10-16T04:38:34;7.22;;;1.73;;
70997;SDS011;58663;52.040;4.634;2022-10-16T04:40:59;3.40;;;1.70;;
70997;SDS011;58663;52.040;4.634;2022-10-16T04:43:25;5.75;;;1.60;;
70997;SDS011;58663;52.040;4.634;2022-10-16T04:45:50;5.43;;;1.73;;
70997;SDS011;58663;52.040;4.634;2022-10-16T04:48:16;3.15;;;1.60;;
70997;SDS011;58663;52.040;4.634;2022-10-16T04:50:42;4.05;;;1.65;;
70997;SDS011;58663;52.040;4.634;2022-10-16T04:53:07;3.53;;;1.92;;
70997;SDS011;58663;52.040;4.634;2022-10-16T04:55:32;1.95;;;1.63;;
70997;SDS011;58663;52.040;4.634;2022-10-16T04:57:58;4.68;;;1.70;;
70997;SDS011;58663;52.040;4.634;2022-10-16T05:00:23;5.15;;;2.80;;
70997;SDS011;58663;52.040;4.634;2022-10-16T05:02:52;3.22;;;1.63;;
70997;SDS011;58663;52.040;4.634;2022-10-16T05:05:17;5.30;;;1.88;;
70997;SDS011;58663;52.040;4.634;2022-10-16T05:07:44;2.83;;;1.80;;
70997;SDS011;58663;52.040;4.634;2022-10-16T05:10:10;6.40;;;1.70;;
70997;SDS011;58663;52.040;4.634;2022-10-16T05:12:36;4.70;;;1.50;;
70997;SDS011;58663;52.040;4.634;2022-10-16T05:15:01;5.50;;;1.80;;
70997;SDS011;58663;52.040;4.634;2022-10-16T05:17:26;2.40;;;1.70;;
70997;SDS011;58663;52.040;4.634;2022-10-16T05:19:52;3.90;;;1.73;;
70997;SDS011;58663;52.040;4.634;2022-10-16T05:22:17;4.57;;;1.70;;
70997;SDS011;58663;52.040;4.634;2022-10-16T05:24:42;7.88;;;2.10;;
70997;SDS011;58663;52.040;4.634;2022-10-16T05:27:08;4.15;;;1.83;;
70997;SDS011;58663;52.040;4.634;2022-10-16T05:29:33;3.72;;;1.77;;
70997;SDS011;58663;52.040;4.634;2022-10-16T05:31:58;7.60;;;1.88;;
70997;SDS011;58663;52.040;4.634;2022-10-16T05:34:24;4.18;;;1.88;;
70997;SDS011;58663;52.040;4.634;2022-10-16T05:36:49;5.13;;;2.30;;
70997;SDS011;58663;52.040;4.634;2022-10-16T05:39:15;2.13;;;1.75;;
70997;SDS011;58663;52.040;4.634;2022-10-16T05:41:41;3.42;;;2.03;;
70997;SDS011;58663;52.040;4.634;2022-10-16T05:44:07;3.08;;;2.20;;
70997;SDS011;58663;52.040;4.634;2022-10-16T05:46:32;4.95;;;2.20;;
70997;SDS011;58663;52.040;4.634;2022-10-16T05:48:58;6.82;;;2.17;;
70997;SDS011;58663;52.040;4.634;2022-10-16T05:51:23;4.88;;;2.00;;
70997;SDS011;58663;52.040;4.634;2022-10-16T05:53:49;4.38;;;1.90;;
70997;SDS011;58663;52.040;4.634;2022-10-16T05:56:14;5.30;;;2.50;;
70997;SDS011;58663;52.040;4.634;2022-10-16T05:58:39;3.00;;;2.30;;
70997;SDS011;58663;52.040;4.634;2022-10-16T06:01:16;6.47;;;2.10;;
70997;SDS011;58663;52.040;4.634;2022-10-16T06:03:42;7.10;;;3.10;;
70997;SDS011;58663;52.040;4.634;2022-10-16T06:06:11;3.15;;;1.60;;
70997;SDS011;58663;52.040;4.634;2022-10-16T06:08:41;5.68;;;1.90;;
70997;SDS011;58663;52.040;4.634;2022-10-16T06:11:08;10.27;;;1.80;;
70997;SDS011;58663;52.040;4.634;2022-10-16T06:13:35;5.95;;;2.33;;
70997;SDS011;58663;52.040;4.634;2022-10-16T06:16:01;3.72;;;1.80;;
70997;SDS011;58663;52.040;4.634;2022-10-16T06:18:27;3.28;;;1.70;;
70997;SDS011;58663;52.040;4.634;2022-10-16T06:20:53;2.08;;;1.60;;
70997;SDS011;58663;52.040;4.634;2022-10-16T06:23:19;6.30;;;2.20;;
70997;SDS011;58663;52.040;4.634;2022-10-16T06:25:44;6.43;;;1.90;;
70997;SDS011;58663;52.040;4.634;2022-10-16T06:28:09;5.00;;;1.75;;
70997;SDS011;58663;52.040;4.634;2022-10-16T06:30:35;2.97;;;1.77;;
70997;SDS011;58663;52.040;4.634;2022-10-16T06:33:00;3.47;;;1.70;;
70997;SDS011;58663;52.040;4.634;2022-10-16T06:35:25;6.88;;;1.48;;
70997;SDS011;58663;52.040;4.634;2022-10-16T06:37:52;4.25;;;1.73;;
70997;SDS011;58663;52.040;4.634;2022-10-16T06:40:18;2.05;;;1.33;;
70997;SDS011;58663;52.040;4.634;2022-10-16T06:42:43;5.63;;;1.83;;
70997;SDS011;58663;52.040;4.634;2022-10-16T06:45:09;3.95;;;1.70;;
70997;SDS011;58663;52.040;4.634;2022-10-16T06:47:34;3.92;;;1.17;;
70997;SDS011;58663;52.040;4.634;2022-10-16T06:50:00;5.28;;;1.40;;
70997;SDS011;58663;52.040;4.634;2022-10-16T06:52:28;3.42;;;1.55;;
70997;SDS011;58663;52.040;4.634;2022-10-16T06:54:53;3.45;;;1.02;;
70997;SDS011;58663;52.040;4.634;2022-10-16T06:57:18;7.72;;;1.77;;
70997;SDS011;58663;52.040;4.634;2022-10-16T06:59:44;4.20;;;2.00;;
70997;SDS011;58663;52.040;4.634;2022-10-16T07:02:09;6.82;;;1.80;;
70997;SDS011;58663;52.040;4.634;2022-10-16T07:04:35;5.88;;;1.30;;
70997;SDS011;58663;52.040;4.634;2022-10-16T07:07:01;4.78;;;1.30;;
70997;SDS011;58663;52.040;4.634;2022-10-16T07:09:26;4.05;;;1.30;;
70997;SDS011;58663;52.040;4.634;2022-10-16T07:11:51;5.88;;;1.60;;
70997;SDS011;58663;52.040;4.634;2022-10-16T07:14:17;4.28;;;1.70;;
70997;SDS011;58663;52.040;4.634;2022-10-16T07:16:44;4.15;;;1.40;;
70997;SDS011;58663;52.040;4.634;2022-10-16T07:19:09;6.40;;;1.58;;
70997;SDS011;58663;52.040;4.634;2022-10-16T07:21:37;5.72;;;1.60;;
70997;SDS011;58663;52.040;4.634;2022-10-16T07:24:04;5.97;;;1.77;;
70997;SDS011;58663;52.040;4.634;2022-10-16T07:26:31;4.15;;;1.60;;
70997;SDS011;58663;52.040;4.634;2022-10-16T07:28:58;3.75;;;1.80;;
70997;SDS011;58663;52.040;4.634;2022-10-16T07:31:23;9.90;;;1.80;;
70997;SDS011;58663;52.040;4.634;2022-10-16T07:33:49;9.35;;;1.90;;
70997;SDS011;58663;52.040;4.634;2022-10-16T07:36:16;9.38;;;2.05;;
70997;SDS011;58663;52.040;4.634;2022-10-16T07:38:42;9.38;;;2.00;;
70997;SDS011;58663;52.040;4.634;2022-10-16T07:41:09;6.80;;;2.13;;
70997;SDS011;58663;52.040;4.634;2022-10-16T07:43:36;4.97;;;1.70;;
70997;SDS011;58663;52.040;4.634;2022-10-16T07:46:02;3.58;;;1.60;;
70997;SDS011;58663;52.040;4.634;2022-10-16T07:48:28;6.55;;;2.03;;
70997;SDS011;58663;52.040;4.634;2022-10-16T07:51:03;8.45;;;1.95;;
70997;SDS011;58663;52.040;4.634;2022-10-16T07:53:29;7.53;;;2.30;;
70997;SDS011;58663;52.040;4.634;2022-10-16T07:55:58;11.70;;;2.58;;
70997;SDS011;58663;52.040;4.634;2022-10-16T07:58:27;7.90;;;2.05;;
70997;SDS011;58663;52.040;4.634;2022-10-16T08:00:53;3.67;;;1.63;;
70997;SDS011;58663;52.040;4.634;2022-10-16T08:03:19;5.10;;;2.22;;
70997;SDS011;58663;52.040;4.634;2022-10-16T08:05:44;4.07;;;1.83;;
70997;SDS011;58663;52.040;4.634;2022-10-16T08:08:13;8.13;;;1.88;;
70997;SDS011;58663;52.040;4.634;2022-10-16T08:10:39;5.13;;;1.73;;
70997;SDS011;58663;52.040;4.634;2022-10-16T08:13:04;5.18;;;1.48;;
70997;SDS011;58663;52.040;4.634;2022-10-16T08:15:29;6.95;;;1.40;;
70997;SDS011;58663;52.040;4.634;2022-10-16T08:17:58;6.70;;;1.73;;
70997;SDS011;58663;52.040;4.634;2022-10-16T08:20:28;4.65;;;1.98;;
70997;SDS011;58663;52.040;4.634;2022-10-16T08:22:54;5.00;;;2.42;;
70997;SDS011;58663;52.040;4.634;2022-10-16T08:25:20;5.10;;;1.40;;
70997;SDS011;58663;52.040;4.634;2022-10-16T08:27:47;5.93;;;1.58;;
70997;SDS011;58663;52.040;4.634;2022-10-16T08:30:12;11.45;;;2.10;;
70997;SDS011;58663;52.040;4.634;2022-10-16T08:32:38;7.18;;;1.80;;
70997;SDS011;58663;52.040;4.634;2022-10-16T08:35:03;7.22;;;1.55;;
70997;SDS011;58663;52.040;4.634;2022-10-16T08:37:29;7.57;;;2.00;;
70997;SDS011;58663;52.040;4.634;2022-10-16T08:39:55;4.28;;;1.70;;
70997;SDS011;58663;52.040;4.634;2022-10-16T08:50:54;4.90;;;1.63;;
70997;SDS011;58663;52.040;4.634;2022-10-16T08:53:27;3.90;;;1.73;;
70997;SDS011;58663;52.040;4.634;2022-10-16T08:55:55;6.75;;;1.90;;
70997;SDS011;58663;52.040;4.634;2022-10-16T08:58:21;7.88;;;1.77;;
70997;SDS011;58663;52.040;4.634;2022-10-16T09:00:49;6.63;;;1.60;;
70997;SDS011;58663;52.040;4.634;2022-10-16T09:03:33;8.20;;;1.48;;
70997;SDS011;58663;52.040;4.634;2022-10-16T09:09:13;9.40;;;1.67;;
70997;SDS011;58663;52.040;4.634;2022-10-16T09:19:56;8.32;;;1.90;;
70997;SDS011;58663;52.040;4.634;2022-10-16T09:22:51;10.52;;;2.53;;
70997;SDS011;58663;52.040;4.634;2022-10-16T09:25:39;12.27;;;2.47;;
70997;SDS011;58663;52.040;4.634;2022-10-16T09:28:10;7.00;;;2.00;;
70997;SDS011;58663;52.040;4.634;2022-10-16T09:30:35;11.70;;;1.98;;
70997;SDS011;58663;52.040;4.634;2022-10-16T09:33:02;10.98;;;1.73;;
70997;SDS011;58663;52.040;4.634;2022-10-16T09:35:44;11.60;;;1.90;;
70997;SDS011;58663;52.040;4.634;2022-10-16T09:38:29;9.15;;;1.70;;
70997;SDS011;58663;52.040;4.634;2022-10-16T09:40:59;7.47;;;1.80;;
70997;SDS011;58663;52.040;4.634;2022-10-16T09:43:34;10.63;;;1.63;;
70997;SDS011;58663;52.040;4.634;2022-10-16T09:46:02;7.10;;;1.67;;
70997;SDS011;58663;52.040;4.634;2022-10-16T09:48:44;8.80;;;1.92;;
70997;SDS011;58663;52.040;4.634;2022-10-16T09:51:20;7.68;;;1.80;;
70997;SDS011;58663;52.040;4.634;2022-10-16T09:53:47;6.75;;;1.65;;
70997;SDS011;58663;52.040;4.634;2022-10-16T09:56:21;13.25;;;1.73;;
70997;SDS011;58663;52.040;4.634;2022-10-16T09:58:55;9.18;;;1.83;;
70997;SDS011;58663;52.040;4.634;2022-10-16T10:01:24;8.32;;;1.63;;
70997;SDS011;58663;52.040;4.634;2022-10-16T10:03:55;6.55;;;1.80;;
70997;SDS011;58663;52.040;4.634;2022-10-16T10:06:26;5.03;;;1.75;;
70997;SDS011;58663;52.040;4.634;2022-10-16T10:14:17;7.47;;;1.52;;
70997;SDS011;58663;52.040;4.634;2022-10-16T10:16:45;11.88;;;1.90;;
70997;SDS011;58663;52.040;4.634;2022-10-16T10:19:15;10.40;;;2.17;;
70997;SDS011;58663;52.040;4.634;2022-10-16T10:21:42;9.82;;;1.95;;
70997;SDS011;58663;52.040;4.634;2022-10-16T10:24:14;11.95;;;2.03;;
70997;SDS011;58663;52.040;4.634;2022-10-16T10:29:48;10.70;;;1.77;;
70997;SDS011;58663;52.040;4.634;2022-10-16T10:43:10;9.67;;;2.13;;
70997;SDS011;58663;52.040;4.634;2022-10-16T10:46:04;5.80;;;1.35;;
70997;SDS011;58663;52.040;4.634;2022-10-16T10:48:38;10.23;;;2.08;;
70997;SDS011;58663;52.040;4.634;2022-10-16T10:51:44;9.85;;;1.65;;
70997;SDS011;58663;52.040;4.634;2022-10-16T10:54:20;8.40;;;2.13;;
70997;SDS011;58663;52.040;4.634;2022-10-16T10:57:14;9.95;;;1.95;;
70997;SDS011;58663;52.040;4.634;2022-10-16T11:05:45;5.53;;;1.67;;
70997;SDS011;58663;52.040;4.634;2022-10-16T11:08:22;9.80;;;1.55;;
70997;SDS011;58663;52.040;4.634;2022-10-16T11:10:53;11.82;;;1.63;;
70997;SDS011;58663;52.040;4.634;2022-10-16T11:16:15;4.07;;;1.30;;
70997;SDS011;58663;52.040;4.634;2022-10-16T11:21:29;9.20;;;1.58;;
70997;SDS011;58663;52.040;4.634;2022-10-16T11:24:00;9.05;;;1.92;;
70997;SDS011;58663;52.040;4.634;2022-10-16T11:26:39;6.90;;;1.35;;
70997;SDS011;58663;52.040;4.634;2022-10-16T11:29:09;8.05;;;1.52;;
70997;SDS011;58663;52.040;4.634;2022-10-16T11:34:12;4.82;;;1.98;;
70997;SDS011;58663;52.040;4.634;2022-10-16T11:39:19;5.53;;;1.80;;
70997;SDS011;58663;52.040;4.634;2022-10-16T11:41:50;12.70;;;1.73;;
70997;SDS011;58663;52.040;4.634;2022-10-16T11:47:16;7.07;;;1.35;;
70997;SDS011;58663;52.040;4.634;2022-10-16T11:49:49;9.10;;;1.30;;
70997;SDS011;58663;52.040;4.634;2022-10-16T11:58:06;8.73;;;1.52;;
70997;SDS011;58663;52.040;4.634;2022-10-16T12:00:42;6.40;;;1.13;;
70997;SDS011;58663;52.040;4.634;2022-10-16T12:03:22;5.18;;;1.20;;
70997;SDS011;58663;52.040;4.634;2022-10-16T12:08:48;5.47;;;1.23;;
70997;SDS011;58663;52.040;4.634;2022-10-16T12:11:22;8.93;;;1.67;;
70997;SDS011;58663;52.040;4.634;2022-10-16T12:13:51;8.90;;;2.20;;
70997;SDS011;58663;52.040;4.634;2022-10-16T12:18:45;8.52;;;1.60;;
70997;SDS011;58663;52.040;4.634;2022-10-16T12:21:15;4.05;;;1.25;;
70997;SDS011;58663;52.040;4.634;2022-10-16T12:23:51;9.27;;;2.13;;
70997;SDS011;58663;52.040;4.634;2022-10-16T12:26:27;6.97;;;1.17;;
70997;SDS011;58663;52.040;4.634;2022-10-16T12:28:54;6.20;;;1.58;;
70997;SDS011;58663;52.040;4.634;2022-10-16T12:31:20;5.90;;;1.13;;
70997;SDS011;58663;52.040;4.634;2022-10-16T12:33:56;5.43;;;1.48;;
70997;SDS011;58663;52.040;4.634;2022-10-16T12:36:27;5.25;;;1.27;;
70997;SDS011;58663;52.040;4.634;2022-10-16T12:38:54;6.25;;;1.20;;
70997;SDS011;58663;52.040;4.634;2022-10-16T12:41:24;10.18;;;1.30;;
70997;SDS011;58663;52.040;4.634;2022-10-16T12:43:51;11.70;;;1.38;;
70997;SDS011;58663;52.040;4.634;2022-10-16T12:48:43;4.50;;;1.13;;
70997;SDS011;58663;52.040;4.634;2022-10-16T12:51:21;12.60;;;1.40;;
70997;SDS011;58663;52.040;4.634;2022-10-16T12:53:57;13.48;;;2.03;;
70997;SDS011;58663;52.040;4.634;2022-10-16T13:16:08;10.75;;;1.73;;
70997;SDS011;58663;52.040;4.634;2022-10-16T13:24:02;8.98;;;1.45;;
70997;SDS011;58663;52.040;4.634;2022-10-16T13:31:42;11.30;;;1.43;;
70997;SDS011;58663;52.040;4.634;2022-10-16T13:34:11;7.10;;;1.70;;
70997;SDS011;58663;52.040;4.634;2022-10-16T13:36:43;7.13;;;1.52;;
70997;SDS011;58663;52.040;4.634;2022-10-16T13:41:36;9.75;;;1.98;;
70997;SDS011;58663;52.040;4.634;2022-10-16T13:44:02;5.07;;;1.52;;
70997;SDS011;58663;52.040;4.634;2022-10-16T13:46:27;8.43;;;1.20;;
70997;SDS011;58663;52.040;4.634;2022-10-16T13:49:01;13.65;;;2.78;;
70997;SDS011;58663;52.040;4.634;2022-10-16T13:51:31;11.95;;;1.60;;
70997;SDS011;58663;52.040;4.634;2022-10-16T13:53:58;5.70;;;1.40;;
70997;SDS011;58663;52.040;4.634;2022-10-16T13:56:30;4.22;;;1.27;;
70997;SDS011;58663;52.040;4.634;2022-10-16T13:59:20;5.72;;;1.48;;
70997;SDS011;58663;52.040;4.634;2022-10-16T14:01:49;7.47;;;1.55;;
70997;SDS011;58663;52.040;4.634;2022-10-16T14:04:15;8.57;;;2.45;;
70997;SDS011;58663;52.040;4.634;2022-10-16T14:06:42;8.73;;;1.70;;
70997;SDS011;58663;52.040;4.634;2022-10-16T14:11:49;7.03;;;1.40;;
70997;SDS011;58663;52.040;4.634;2022-10-16T14:14:16;7.43;;;1.33;;
70997;SDS011;58663;52.040;4.634;2022-10-16T14:16:42;7.75;;;0.93;;
70997;SDS011;58663;52.040;4.634;2022-10-16T14:19:22;7.32;;;1.42;;
70997;SDS011;58663;52.040;4.634;2022-10-16T14:21:50;7.35;;;1.80;;
70997;SDS011;58663;52.040;4.634;2022-10-16T14:24:24;5.00;;;1.23;;
70997;SDS011;58663;52.040;4.634;2022-10-16T14:26:52;6.57;;;1.40;;
70997;SDS011;58663;52.040;4.634;2022-10-16T14:29:20;10.20;;;1.77;;
70997;SDS011;58663;52.040;4.634;2022-10-16T14:34:54;5.90;;;1.48;;
70997;SDS011;58663;52.040;4.634;2022-10-16T14:37:27;11.93;;;1.75;;
70997;SDS011;58663;52.040;4.634;2022-10-16T14:39:54;8.65;;;1.60;;
70997;SDS011;58663;52.040;4.634;2022-10-16T14:42:21;14.55;;;1.58;;
70997;SDS011;58663;52.040;4.634;2022-10-16T14:47:22;7.97;;;1.60;;
70997;SDS011;58663;52.040;4.634;2022-10-16T14:49:51;9.10;;;1.60;;
70997;SDS011;58663;52.040;4.634;2022-10-16T14:52:18;11.10;;;1.58;;
70997;SDS011;58663;52.040;4.634;2022-10-16T14:54:43;8.45;;;1.55;;
70997;SDS011;58663;52.040;4.634;2022-10-16T14:57:18;7.88;;;1.55;;
70997;SDS011;58663;52.040;4.634;2022-10-16T14:59:45;7.18;;;1.40;;
70997;SDS011;58663;52.040;4.634;2022-10-16T15:04:45;10.20;;;1.77;;
70997;SDS011;58663;52.040;4.634;2022-10-16T15:07:10;6.40;;;1.50;;
70997;SDS011;58663;52.040;4.634;2022-10-16T15:09:35;9.95;;;2.00;;
70997;SDS011;58663;52.040;4.634;2022-10-16T15:12:00;9.70;;;2.20;;
70997;SDS011;58663;52.040;4.634;2022-10-16T15:14:26;8.30;;;1.58;;
70997;SDS011;58663;52.040;4.634;2022-10-16T15:16:52;5.93;;;1.50;;
70997;SDS011;58663;52.040;4.634;2022-10-16T15:19:17;4.30;;;1.63;;
70997;SDS011;58663;52.040;4.634;2022-10-16T15:21:42;6.68;;;1.58;;
70997;SDS011;58663;52.040;4.634;2022-10-16T15:24:09;12.90;;;1.90;;
70997;SDS011;58663;52.040;4.634;2022-10-16T15:26:37;7.78;;;1.48;;
70997;SDS011;58663;52.040;4.634;2022-10-16T15:29:03;11.13;;;1.80;;
70997;SDS011;58663;52.040;4.634;2022-10-16T15:31:28;10.10;;;1.88;;
70997;SDS011;58663;52.040;4.634;2022-10-16T15:33:53;10.48;;;1.73;;
70997;SDS011;58663;52.040;4.634;2022-10-16T15:36:26;5.88;;;1.38;;
70997;SDS011;58663;52.040;4.634;2022-10-16T15:38:53;17.42;;;1.90;;
70997;SDS011;58663;52.040;4.634;2022-10-16T15:41:18;10.82;;;2.20;;
70997;SDS011;58663;52.040;4.634;2022-10-16T15:43:43;9.23;;;2.85;;
70997;SDS011;58663;52.040;4.634;2022-10-16T15:46:10;10.65;;;1.90;;
70997;SDS011;58663;52.040;4.634;2022-10-16T15:48:36;8.45;;;2.60;;
70997;SDS011;58663;52.040;4.634;2022-10-16T15:51:04;12.10;;;2.00;;
70997;SDS011;58663;52.040;4.634;2022-10-16T15:53:31;10.55;;;2.20;;
70997;SDS011;58663;52.040;4.634;2022-10-16T15:55:56;6.28;;;1.52;;
70997;SDS011;58663;52.040;4.634;2022-10-16T15:58:21;9.70;;;2.55;;
70997;SDS011;58663;52.040;4.634;2022-10-16T16:00:56;7.20;;;1.90;;
70997;SDS011;58663;52.040;4.634;2022-10-16T16:03:22;9.10;;;2.03;;
70997;SDS011;58663;52.040;4.634;2022-10-16T16:05:48;6.03;;;1.88;;
70997;SDS011;58663;52.040;4.634;2022-10-16T16:08:13;6.50;;;1.63;;
70997;SDS011;58663;52.040;4.634;2022-10-16T16:10:38;8.82;;;2.03;;
70997;SDS011;58663;52.040;4.634;2022-10-16T16:13:04;12.52;;;2.10;;
70997;SDS011;58663;52.040;4.634;2022-10-16T16:15:29;5.25;;;1.88;;
70997;SDS011;58663;52.040;4.634;2022-10-16T16:17:54;8.32;;;2.80;;
70997;SDS011;58663;52.040;4.634;2022-10-16T16:20:20;9.90;;;2.13;;
70997;SDS011;58663;52.040;4.634;2022-10-16T16:22:45;8.32;;;2.17;;
70997;SDS011;58663;52.040;4.634;2022-10-16T16:25:10;10.63;;;2.63;;
70997;SDS011;58663;52.040;4.634;2022-10-16T16:27:36;8.30;;;2.17;;
70997;SDS011;58663;52.040;4.634;2022-10-16T16:30:03;9.60;;;2.65;;
70997;SDS011;58663;52.040;4.634;2022-10-16T16:32:32;7.55;;;2.63;;
70997;SDS011;58663;52.040;4.634;2022-10-16T16:34:58;12.35;;;2.85;;
70997;SDS011;58663;52.040;4.634;2022-10-16T16:37:23;12.75;;;3.20;;
70997;SDS011;58663;52.040;4.634;2022-10-16T16:39:48;10.45;;;2.78;;
70997;SDS011;58663;52.040;4.634;2022-10-16T16:42:14;10.10;;;3.13;;
70997;SDS011;58663;52.040;4.634;2022-10-16T16:44:39;10.07;;;2.70;;
70997;SDS011;58663;52.040;4.634;2022-10-16T16:47:05;9.63;;;2.67;;
70997;SDS011;58663;52.040;4.634;2022-10-16T16:49:31;8.25;;;2.58;;
70997;SDS011;58663;52.040;4.634;2022-10-16T16:51:56;11.05;;;2.67;;
70997;SDS011;58663;52.040;4.634;2022-10-16T16:54:22;9.38;;;2.63;;
70997;SDS011;58663;52.040;4.634;2022-10-16T16:56:47;7.88;;;2.70;;
70997;SDS011;58663;52.040;4.634;2022-10-16T16:59:13;9.23;;;3.00;;
70997;SDS011;58663;52.040;4.634;2022-10-16T17:01:40;12.23;;;2.60;;
70997;SDS011;58663;52.040;4.634;2022-10-16T17:04:06;15.30;;;3.08;;